WetterOnline ( http://www.wetteronline.de )

Wetter aktuell Senftenberg

Aktuelles Wetter: Hoyerswerda (116m)

6-stündlich | Neueste Meldungen
Ortszeit Temperatur Wetter
Mo, 23.07. 2:00 17.3° C bewölkt
So, 22.07. 20:00 25.0° C bedeckt
So, 22.07. 14:00 26.7° C wolkig
So, 22.07. 8:00 18.8° C bedeckt
So, 22.07. 2:00 17.8° C wolkig
Sa, 21.07. 20:00 25.8° C wolkig
Sa, 21.07. 14:00 27.3° C leicht bewölkt
Sa, 21.07. 8:00 18.4° C leicht bewölkt
Ortszeit Temperatur Wetter
Mo, 23.07. 3:30 15.9° C wolkig
Mo, 23.07. 3:20 15.9° C wolkig
Mo, 23.07. 3:10 16.3° C wolkig
Mo, 23.07. 3:00 16.9° C bewölkt
Mo, 23.07. 2:50 16.9° C bewölkt
Mo, 23.07. 2:40 17.1° C bedeckt
Mo, 23.07. 2:30 17.4° C bedeckt
Mo, 23.07. 2:00 17.3° C bewölkt
Mo, 23.07. 1:30 17.0° C wolkig
Mo, 23.07. 1:00 17.6° C bedeckt
Mo, 23.07. 0:30 18.3° C bedeckt
Ortszeit Relative Feuchte Sichtweite
Mo, 23.07. 2:00 73% 27 km
So, 22.07. 20:00 38% 50 km
So, 22.07. 14:00 33% 30 km
So, 22.07. 8:00 65% 30 km
So, 22.07. 2:00 62% 40 km
Sa, 21.07. 20:00 37% 45 km
Sa, 21.07. 14:00 33% 35 km
Sa, 21.07. 8:00 62% 21 km
Ortszeit Relative Feuchte Sichtweite
Mo, 23.07. 3:30 82% 18 km
Mo, 23.07. 3:20 82% -
Mo, 23.07. 3:10 80% -
Mo, 23.07. 3:00 77% 21 km
Mo, 23.07. 2:50 77% -
Mo, 23.07. 2:40 76% -
Mo, 23.07. 2:30 73% 25 km
Mo, 23.07. 2:00 73% 27 km
Mo, 23.07. 1:30 72% 28 km
Mo, 23.07. 1:00 73% 27 km
Mo, 23.07. 0:30 68% 29 km
Ortszeit Niederschlagsmenge Niederschlagsart
Mo, 23.07. 2:00 0.0 l/m2 in 6 Std. -
So, 22.07. 20:00 0.1 l/m2 in 12 Std. -
So, 22.07. 14:00 0.1 l/m2 in 6 Std. Niederschlag
So, 22.07. 8:00 0.0 l/m2 in 12 Std. -
So, 22.07. 2:00 0.0 l/m2 in 6 Std. -
Sa, 21.07. 20:00 0.0 l/m2 in 12 Std. -
Sa, 21.07. 14:00 0.0 l/m2 in 6 Std. -
Sa, 21.07. 8:00 0.0 l/m2 in 12 Std. -
Ortszeit Niederschlagsmenge Niederschlagsart
Mo, 23.07. 3:30 0.0 l/m2 in 1 Std. -
Mo, 23.07. 3:20 keine Meldung -
Mo, 23.07. 3:10 keine Meldung -
Mo, 23.07. 3:00 0.0 l/m2 in 1 Std. -
Mo, 23.07. 2:50 keine Meldung -
Mo, 23.07. 2:40 keine Meldung -
Mo, 23.07. 2:30 0.0 l/m2 in 1 Std. -
Mo, 23.07. 2:00 0.0 l/m2 in 1 Std. -
Mo, 23.07. 1:30 0.0 l/m2 in 1 Std. -
Mo, 23.07. 1:00 0.0 l/m2 in 1 Std. -
Mo, 23.07. 0:30 0.0 l/m2 in 1 Std. -
Ortszeit Stärke Spitze Richtung
km/h Bft. km/h Grad Sektor
Mo, 23.07. 2:00 4 1 11 280° W
So, 22.07. 20:00 7 2 36 350° N
So, 22.07. 14:00 17 3 28 340° N
So, 22.07. 8:00 6 1 13 360° N
So, 22.07. 2:00 7 2 18 90° O
Sa, 21.07. 20:00 11 2 29 30° NO
Sa, 21.07. 14:00 14 3 25 50° NO
Sa, 21.07. 8:00 4 1 11 50° NO
Ortszeit Stärke Spitze Richtung
km/h Bft. km/h Grad Sektor
Mo, 23.07. 3:30 0 0 4 - -
Mo, 23.07. 3:20 2 1 - 250° W
Mo, 23.07. 3:10 0 0 - 220° SW
Mo, 23.07. 3:00 2 1 6 250° W
Mo, 23.07. 2:50 2 1 - 250° W
Mo, 23.07. 2:40 4 1 - 270° W
Mo, 23.07. 2:30 4 1 7 280° W
Mo, 23.07. 2:00 4 1 7 280° W
Mo, 23.07. 1:30 4 1 7 250° W
Mo, 23.07. 1:00 4 1 7 270° W
Mo, 23.07. 0:30 4 1 7 250° W
Ortszeit Untergrenze Bedeckung Gattung
total tief tief mittel hoch
Mo, 23.07. 2:00 4200 m 7/8 7/8 - - -
So, 22.07. 20:00 3900 m 8/8 8/8 - - -
So, 22.07. 14:00 4500 m 8/8 8/8 - - -
So, 22.07. 8:00 6600 m 8/8 8/8 - - -
So, 22.07. 2:00 8100 m 8/8 0/8 - - -
Sa, 21.07. 20:00 2700 m 7/8 1/8 - - -
Sa, 21.07. 14:00 9000 m 7/8 0/8 - - -
Sa, 21.07. 8:00 10500 m 8/8 0/8 - - -
Ortszeit Bedeckungsgrad in Achtel und Wolkenuntergrenze
Mo, 23.07. 3:30 2(5100m) 7(7500m)
Mo, 23.07. 3:20 2(5100m) 7(7500m)
Mo, 23.07. 3:10 1(3600m) 5(5100m) 7(7800m)
Mo, 23.07. 3:00 7(4500m) 6(5100m) 7(7800m)
Mo, 23.07. 2:50 7(4500m)
Mo, 23.07. 2:40 8(4200m)
Mo, 23.07. 2:30 8(4200m)
Mo, 23.07. 2:00 7(4200m)
Mo, 23.07. 1:30 6(4200m)
Mo, 23.07. 1:00 8(4200m)
Mo, 23.07. 0:30 8(4200m) 8(5700m)
Ortszeit Luftdruck NN (hPa) Tendenz (hPa in 3 Std.)
Mo, 23.07. 2:00 1014 + 0,1
So, 22.07. 20:00 1012 + 0,5
So, 22.07. 14:00 1012 - 0,2
So, 22.07. 8:00 1013 + 0,9
So, 22.07. 2:00 1011 - 0,2
Sa, 21.07. 20:00 1010 + 0,1
Sa, 21.07. 14:00 1011 - 0,8
Sa, 21.07. 8:00 1012 - 0,1
Ortszeit Luftdruck NN (hPa) Tendenz (hPa in 3 Std.)
Mo, 23.07. 3:30 1014 0,0
Mo, 23.07. 3:20 1014 keine Meldung
Mo, 23.07. 3:10 1014 keine Meldung
Mo, 23.07. 3:00 1014 - 0,2
Mo, 23.07. 2:50 1014 keine Meldung
Mo, 23.07. 2:40 1014 keine Meldung
Mo, 23.07. 2:30 1014 + 0,1
Mo, 23.07. 2:00 1014 + 0,1
Mo, 23.07. 1:30 1014 + 0,3
Mo, 23.07. 1:00 1014 + 0,4
Mo, 23.07. 0:30 1014 + 0,8
Ortszeit Schneehöhe (cm)
Mo, 23.07. 2:00 -
So, 22.07. 20:00 -
So, 22.07. 14:00 -
So, 22.07. 8:00 -
So, 22.07. 2:00 -
Sa, 21.07. 20:00 -
Sa, 21.07. 14:00 -
Sa, 21.07. 8:00 -
Ortszeit Schneehöhe (cm)
Mo, 23.07. 3:30 -
Mo, 23.07. 3:20 -
Mo, 23.07. 3:10 -
Mo, 23.07. 3:00 -
Mo, 23.07. 2:50 -
Mo, 23.07. 2:40 -
Mo, 23.07. 2:30 -
Mo, 23.07. 2:00 -
Mo, 23.07. 1:30 -
Mo, 23.07. 1:00 -
Mo, 23.07. 0:30 -
Link zu dieser Seite / Seite empfehlen

Das Wetter in ...